Alsace — PB4786 — position and weather

sailwx.info

Track history (hours):
 
Tides and Currents Weather Stations Pressure Air Temp Water Temp Dewpoint Dewpoint Depression Visibility Wind Speed Wind Dir Waves Ship Positions

Alsace

Last reported at 2016-Oct-01 00:33 UTC. Time now 2016-Oct-01 13:53 UTC.
Position N 47°39' E 007°32'.

Length 178 m; draft 1.8 m.

Type: Ship. MMSI: 244660556.

Date/timePositionNaut miles runAvg speedWind from/ knotsBaromVisibWave heightAir tempDewpointWater temp
2016-Oct-01 00:33N 47°39' E 007°32'5 2.2
2016-Sep-30 22:30N 47°35' E 007°35'0 0.1
2016-Sep-30 20:33N 47°35' E 007°35'0 0.1
2016-Sep-30 14:31N 47°35' E 007°36'1 0.2
2016-Sep-30 08:20N 47°36' E 007°35'0 0.0
2016-Sep-30 06:32N 47°36' E 007°35'1 0.4
2016-Sep-30 03:30N 47°35' E 007°35'0 0.0
2016-Sep-29 23:08N 47°35' E 007°35'99 2.8
2016-Sep-28 12:33N 49°09' E 008°22'103 3.9
2016-Sep-27 10:06N 50°41' E 007°11'36 3.8
2016-Sep-27 00:33N 51°13' E 006°46'16 4.0
2016-Sep-26 20:29N 51°30' E 006°42'4 4.2
2016-Sep-26 19:33N 51°33' E 006°41'19 4.6
2016-Sep-26 15:27N 51°47' E 006°19'19 1.4
2016-Sep-26 02:23N 51°52' E 005°50'64 5.4
2016-Sep-25 14:29N 51°27' E 004°14'6 3.3
2016-Sep-25 12:33N 51°21' E 004°17'0 0.5
2016-Sep-25 11:34N 51°21' E 004°16'0 0.3
2016-Sep-25 10:33N 51°21' E 004°16'0 0.0
2016-Sep-25 09:33N 51°21' E 004°16'3 1.6
2016-Sep-25 07:33N 51°18' E 004°18'0 0.0
2016-Sep-25 04:33N 51°18' E 004°18'1 0.4
2016-Sep-25 00:33N 51°17' E 004°16'0 0.1
2016-Sep-24 22:34N 51°17' E 004°16'3 2.8
2016-Sep-24 21:33N 51°20' E 004°17'1 0.6
2016-Sep-24 19:33N 51°19' E 004°17'0 0.0
2016-Sep-24 18:33N 51°19' E 004°17'1 1.2
2016-Sep-24 17:33N 51°18' E 004°16'0 0.0
2016-Sep-24 16:33N 51°18' E 004°16'0 0.0
2016-Sep-24 14:31N 51°18' E 004°16'3 1.5
2016-Sep-24 12:33N 51°17' E 004°20'3 1.4
2016-Sep-24 10:33N 51°20' E 004°20'0 0.0
2016-Sep-24 09:33N 51°20' E 004°20'1 0.1
2016-Sep-24 03:33N 51°19' E 004°19'0 0.0
2016-Sep-24 02:33N 51°19' E 004°19'0 0.0
2016-Sep-24 01:30N 51°19' E 004°19'0 0.0
2016-Sep-24 00:33N 51°19' E 004°19'24 2.5
2016-Sep-23 15:06N 51°42' E 004°32'11 7.3
2016-Sep-23 13:34N 51°48' E 004°47'22 5.5
2016-Sep-23 09:32N 51°49' E 005°23'46 7.7
2016-Sep-23 03:33N 51°39' E 006°36'7 6.6
2016-Sep-23 02:32N 51°34' E 006°41'20 6.9
2016-Sep-22 23:33N 51°13' E 006°45'19 6.4
2016-Sep-22 20:31N 50°56' E 006°58'110 6.9
2016-Sep-22 04:33N 49°23' E 008°30'8 7.7
2016-Sep-22 03:31N 49°15' E 008°26'  
Track history (hours):
 
Tides and Currents Weather Stations Pressure Air Temp Water Temp Dewpoint Dewpoint Depression Visibility Wind Speed Wind Dir Waves Ship Positions

Alsace

Last reported at 2016-Oct-01 00:33 UTC. Time now 2016-Oct-01 13:53 UTC.
Position N 47°39' E 007°32'.

Length 178 m; draft 1.8 m.

Type: Ship. MMSI: 244660556.

Date/timePositionNaut miles runAvg speedWind from/ knotsBaromVisibWave heightAir tempDewpointWater temp
2016-Oct-01 00:33N 47°39' E 007°32'5 2.2
2016-Sep-30 22:30N 47°35' E 007°35'0 0.1
2016-Sep-30 20:33N 47°35' E 007°35'0 0.1
2016-Sep-30 14:31N 47°35' E 007°36'1 0.2
2016-Sep-30 08:20N 47°36' E 007°35'0 0.0
2016-Sep-30 06:32N 47°36' E 007°35'1 0.4
2016-Sep-30 03:30N 47°35' E 007°35'0 0.0
2016-Sep-29 23:08N 47°35' E 007°35'99 2.8
2016-Sep-28 12:33N 49°09' E 008°22'103 3.9
2016-Sep-27 10:06N 50°41' E 007°11'36 3.8
2016-Sep-27 00:33N 51°13' E 006°46'16 4.0
2016-Sep-26 20:29N 51°30' E 006°42'4 4.2
2016-Sep-26 19:33N 51°33' E 006°41'19 4.6
2016-Sep-26 15:27N 51°47' E 006°19'19 1.4
2016-Sep-26 02:23N 51°52' E 005°50'64 5.4
2016-Sep-25 14:29N 51°27' E 004°14'6 3.3
2016-Sep-25 12:33N 51°21' E 004°17'0 0.5
2016-Sep-25 11:34N 51°21' E 004°16'0 0.3
2016-Sep-25 10:33N 51°21' E 004°16'0 0.0
2016-Sep-25 09:33N 51°21' E 004°16'3 1.6
2016-Sep-25 07:33N 51°18' E 004°18'0 0.0
2016-Sep-25 04:33N 51°18' E 004°18'1 0.4
2016-Sep-25 00:33N 51°17' E 004°16'0 0.1
2016-Sep-24 22:34N 51°17' E 004°16'3 2.8
2016-Sep-24 21:33N 51°20' E 004°17'1 0.6
2016-Sep-24 19:33N 51°19' E 004°17'0 0.0
2016-Sep-24 18:33N 51°19' E 004°17'1 1.2
2016-Sep-24 17:33N 51°18' E 004°16'0 0.0
2016-Sep-24 16:33N 51°18' E 004°16'0 0.0
2016-Sep-24 14:31N 51°18' E 004°16'3 1.5
2016-Sep-24 12:33N 51°17' E 004°20'3 1.4
2016-Sep-24 10:33N 51°20' E 004°20'0 0.0
2016-Sep-24 09:33N 51°20' E 004°20'1 0.1
2016-Sep-24 03:33N 51°19' E 004°19'0 0.0
2016-Sep-24 02:33N 51°19' E 004°19'0 0.0
2016-Sep-24 01:30N 51°19' E 004°19'0 0.0
2016-Sep-24 00:33N 51°19' E 004°19'24 2.5
2016-Sep-23 15:06N 51°42' E 004°32'11 7.3
2016-Sep-23 13:34N 51°48' E 004°47'22 5.5
2016-Sep-23 09:32N 51°49' E 005°23'46 7.7
2016-Sep-23 03:33N 51°39' E 006°36'7 6.6
2016-Sep-23 02:32N 51°34' E 006°41'20 6.9
2016-Sep-22 23:33N 51°13' E 006°45'19 6.4
2016-Sep-22 20:31N 50°56' E 006°58'110 6.9
2016-Sep-22 04:33N 49°23' E 008°30'8 7.7
2016-Sep-22 03:31N 49°15' E 008°26'  

Dump ship's entire track history